Pelican Rapids, Minnesota
Current Conditions -  °F | °C
As of 5:54 AM on Monday 22 Dec 2014 (Local Time) from KFFM Reporting Station
Haze Haze  
Wind Chill: 26°   Ceiling: 400
Heat Index: 36°   Visibility: 2mi
Dew Point: 36°   Wind: 16mph
Humidity: 100%   Direction: 150°SSE
Pressure: 29.53"   Gusts: NA
Location:  46.57°N, 96.08°W
Report Text: KFFM 221154Z AUTO 15014KT 2SM BR OVC004 02/02 A2953 RMK AO2
Loading
Personal Weather Stations






























Interactive Weather Map New forecast layout! Learn more

10-Day Weather Forecast

Advertisements
Track Severe Weather on mobile